Time;durP1;ratioP1;P1;durP2;ratioP2;P2;SDS_P1;SDS_P2;PMS_P1;PMS_P2;Temp;Humidity;BMP_temperature;BMP_pressure;BME280_temperature;BME280_humidity;BME280_pressure;Samples;Min_cycle;Max_cycle;Signal;HPM_P1;HPM_P2
2021/04/01 00:01:54;;;;;;;35.00;24.35;;;16.70;80.00;;;;;;1873382;74;21158;-69
2021/04/01 00:04:22;;;;;;;38.23;25.15;;;16.60;81.40;;;;;;1886268;74;21146;-69
2021/04/01 00:06:49;;;;;;;34.60;24.43;;;16.60;81.20;;;;;;1880261;74;21096;-69
2021/04/01 00:09:17;;;;;;;35.80;24.52;;;16.60;80.70;;;;;;1886456;74;21184;-70
2021/04/01 00:11:44;;;;;;;33.55;24.23;;;16.60;81.60;;;;;;1881499;74;21358;-69
2021/04/01 00:14:12;;;;;;;35.65;24.82;;;16.70;80.80;;;;;;1872333;74;21194;-69
2021/04/01 00:16:39;;;;;;;34.38;24.47;;;16.60;80.40;;;;;;1887876;74;21081;-68
2021/04/01 00:19:07;;;;;;;38.75;24.32;;;16.70;80.70;;;;;;1875475;74;21218;-69
2021/04/01 00:21:34;;;;;;;35.85;25.12;;;16.70;81.20;;;;;;1873146;75;21092;-69
2021/04/01 00:24:02;;;;;;;35.63;26.12;;;16.60;81.40;;;;;;1880319;74;21103;-69
2021/04/01 00:26:29;;;;;;;42.15;26.05;;;16.60;81.30;;;;;;1882127;74;21069;-71
2021/04/01 00:28:57;;;;;;;38.55;26.02;;;16.60;81.10;;;;;;1875396;74;21106;-70
2021/04/01 00:31:24;;;;;;;40.28;27.35;;;16.60;81.20;;;;;;1880744;74;21095;-69
2021/04/01 00:33:52;;;;;;;36.03;25.48;;;16.60;81.20;;;;;;1879739;74;21011;-70
2021/04/01 00:36:20;;;;;;;35.30;25.30;;;16.60;81.60;;;;;;1885091;74;21187;-71
2021/04/01 00:38:47;;;;;;;39.55;25.70;;;16.60;81.90;;;;;;1878621;74;21254;-70
2021/04/01 00:41:15;;;;;;;34.38;25.97;;;16.50;81.90;;;;;;1882457;74;21210;-70
2021/04/01 00:43:42;;;;;;;34.27;24.72;;;16.50;82.80;;;;;;1886976;74;21049;-69
2021/04/01 00:46:10;;;;;;;32.38;24.12;;;16.50;83.40;;;;;;1880277;74;21077;-69
2021/04/01 00:48:37;;;;;;;41.80;25.72;;;16.50;83.20;;;;;;1877638;74;21218;-69
2021/04/01 00:51:05;;;;;;;39.75;26.10;;;16.60;83.90;;;;;;1872947;74;21591;-69
2021/04/01 00:53:33;;;;;;;39.50;26.12;;;16.60;82.50;;;;;;1876263;74;21352;-69
2021/04/01 00:56:01;;;;;;;39.18;26.33;;;16.60;82.60;;;;;;1882551;74;21081;-69
2021/04/01 00:58:29;;;;;;;39.18;26.77;;;16.60;82.50;;;;;;1887350;74;21078;-70
2021/04/01 01:01:13;;;;;;;34.50;25.02;;;16.60;82.50;;;;;;1875695;74;21054;-69
2021/04/01 01:03:26;;;;;;;37.48;25.97;;;16.60;82.50;;;;;;1880026;74;21140;-70
2021/04/01 01:05:53;;;;;;;40.33;25.43;;;16.70;83.50;;;;;;1880520;74;21101;-69
2021/04/01 01:08:21;;;;;;;36.53;25.05;;;16.60;83.40;;;;;;1881018;74;21210;-69
2021/04/01 01:10:48;;;;;;;33.75;24.10;;;16.60;85.10;;;;;;1882457;74;21089;-70
2021/04/01 01:13:16;;;;;;;39.27;25.17;;;16.60;84.10;;;;;;1876561;74;21693;-71
2021/04/01 01:15:43;;;;;;;35.17;25.60;;;16.60;84.40;;;;;;1877906;74;21117;-71
2021/04/01 01:18:11;;;;;;;40.60;27.05;;;16.50;83.30;;;;;;1875859;74;21210;-68
2021/04/01 01:20:38;;;;;;;40.83;25.80;;;16.50;83.30;;;;;;1877776;75;21093;-69
2021/04/01 01:23:09;;;;;;;38.42;26.82;;;16.50;83.40;;;;;;1887230;74;21100;-68
2021/04/01 01:25:37;;;;;;;39.10;27.50;;;16.50;83.60;;;;;;1877878;74;21151;-70
2021/04/01 01:28:06;;;;;;;39.35;26.30;;;16.50;83.90;;;;;;1878558;74;21576;-71
2021/04/01 01:30:35;;;;;;;41.18;27.90;;;16.50;85.00;;;;;;1879928;74;21170;-69
2021/04/01 01:33:06;;;;;;;40.05;27.35;;;16.50;84.70;;;;;;1889846;74;21753;-69
2021/04/01 01:35:36;;;;;;;39.92;28.75;;;16.50;83.50;;;;;;1880700;74;21105;-70
2021/04/01 01:38:07;;;;;;;39.80;27.00;;;16.50;83.10;;;;;;1880504;74;21148;-69
2021/04/01 01:40:36;;;;;;;39.15;26.87;;;16.60;86.40;;;;;;1887284;74;21010;-70
2021/04/01 01:43:06;;;;;;;38.17;26.82;;;16.60;87.90;;;;;;1889692;74;21099;-70
2021/04/01 01:45:34;;;;;;;36.73;27.10;;;16.60;86.70;;;;;;1879781;74;21602;-70
2021/04/01 01:48:02;;;;;;;36.75;27.77;;;16.50;85.20;;;;;;1888026;74;21218;-70
2021/04/01 01:50:32;;;;;;;42.90;27.70;;;16.60;85.30;;;;;;1884276;74;21037;-70
2021/04/01 01:53:00;;;;;;;34.90;26.02;;;16.60;87.70;;;;;;1881280;74;21022;-69
2021/04/01 01:55:29;;;;;;;38.53;27.42;;;16.60;87.60;;;;;;1879374;74;21511;-69
2021/04/01 01:57:57;;;;;;;38.33;27.42;;;16.50;86.90;;;;;;1881720;74;21151;-70
2021/04/01 02:00:30;;;;;;;42.23;28.42;;;16.50;86.70;;;;;;1875925;74;21504;-70
2021/04/01 02:02:59;;;;;;;39.65;28.20;;;16.50;86.40;;;;;;1877623;74;21054;-68
2021/04/01 02:05:28;;;;;;;40.58;27.27;;;16.50;87.40;;;;;;1884093;74;21082;-69
2021/04/01 02:07:56;;;;;;;41.08;29.42;;;16.50;88.80;;;;;;1876518;74;21128;-69
2021/04/01 02:10:30;;;;;;;42.88;29.55;;;16.50;86.80;;;;;;1876150;74;21394;-70
2021/04/01 02:12:58;;;;;;;52.90;29.60;;;16.50;87.00;;;;;;1884995;74;21485;-69
2021/04/01 02:15:28;;;;;;;41.05;28.98;;;16.50;88.10;;;;;;1878464;74;21163;-70
2021/04/01 02:18:11;;;;;;;37.53;26.97;;;16.60;90.00;;;;;;1873029;74;21066;-71
2021/04/01 02:20:45;;;;;;;42.93;29.18;;;16.60;90.10;;;;;;1839984;74;21161;-69
2021/04/01 02:23:24;;;;;;;43.08;28.45;;;16.50;89.50;;;;;;1878009;74;21195;-70
2021/04/01 02:25:53;;;;;;;43.05;29.77;;;16.50;88.90;;;;;;1879617;74;21583;-71
2021/04/01 02:28:23;;;;;;;45.73;30.08;;;16.50;88.90;;;;;;1886979;74;21246;-70
2021/04/01 02:30:54;;;;;;;43.13;30.57;;;16.50;88.60;;;;;;1881216;74;21109;-69
2021/04/01 02:33:24;;;;;;;40.92;29.55;;;16.50;88.30;;;;;;1881938;74;21166;-69
2021/04/01 02:35:52;;;;;;;42.95;29.57;;;16.50;88.50;;;;;;1888076;74;21144;-70
2021/04/01 02:38:21;;;;;;;42.95;31.33;;;16.50;89.80;;;;;;1880342;74;21156;-71
2021/04/01 02:40:48;;;;;;;46.85;29.90;;;16.50;88.50;;;;;;1883051;74;21457;-71
2021/04/01 02:43:49;;;;;;;41.85;30.62;;;16.50;89.60;;;;;;1881440;74;21047;-71
2021/04/01 02:45:51;;;;;;;41.77;31.25;;;16.50;89.00;;;;;;1871580;74;21132;-70
2021/04/01 02:48:19;;;;;;;52.58;34.00;;;16.50;88.50;;;;;;1877250;75;21657;-70
2021/04/01 02:50:46;;;;;;;56.53;34.78;;;16.60;86.40;;;;;;1877527;75;21069;-70
2021/04/01 02:53:14;;;;;;;51.70;33.55;;;16.60;85.10;;;;;;1881008;74;21163;-71
2021/04/01 02:55:41;;;;;;;53.25;34.40;;;16.60;86.40;;;;;;1881948;74;21143;-70
2021/04/01 02:58:09;;;;;;;50.75;32.35;;;16.60;85.30;;;;;;1880126;74;21152;-70
2021/04/01 03:00:37;;;;;;;52.45;31.33;;;16.60;86.90;;;;;;1875311;74;22229;-71
2021/04/01 03:03:13;;;;;;;52.13;33.48;;;16.50;89.60;;;;;;1877977;74;21210;-71
2021/04/01 03:05:38;;;;;;;49.25;33.08;;;16.50;87.70;;;;;;1879540;74;21182;-70
2021/04/01 03:08:06;;;;;;;57.58;34.95;;;16.40;87.20;;;;;;1872718;74;21439;-70
2021/04/01 03:10:33;;;;;;;45.92;33.13;;;16.40;86.80;;;;;;1882310;74;21208;-71
2021/04/01 03:13:01;;;;;;;54.93;33.13;;;16.40;88.40;;;;;;1884575;74;21149;-70
2021/04/01 03:15:28;;;;;;;48.05;31.35;;;16.30;87.70;;;;;;1891490;74;21186;-70
2021/04/01 03:17:57;;;;;;;53.55;32.80;;;16.40;87.70;;;;;;1876277;74;22381;-69
2021/04/01 03:20:25;;;;;;;49.13;32.03;;;16.30;88.80;;;;;;1869007;75;21097;-70
2021/04/01 03:22:52;;;;;;;50.05;33.58;;;16.30;88.30;;;;;;1883674;74;21096;-69
2021/04/01 03:25:20;;;;;;;47.93;32.60;;;16.30;88.80;;;;;;1879470;74;21576;-70
2021/04/01 03:27:47;;;;;;;53.55;33.45;;;16.30;90.00;;;;;;1879296;74;21124;-69
2021/04/01 03:30:16;;;;;;;57.27;34.18;;;16.10;88.80;;;;;;1887335;74;21073;-69
2021/04/01 03:32:46;;;;;;;52.98;33.45;;;16.10;88.80;;;;;;1882194;74;21213;-69
2021/04/01 03:35:20;;;;;;;48.23;33.85;;;16.00;88.40;;;;;;1883227;74;21082;-68
2021/04/01 03:37:50;;;;;;;48.52;32.05;;;16.00;89.00;;;;;;1877478;74;21809;-69
2021/04/01 03:40:18;;;;;;;51.70;34.15;;;16.00;89.40;;;;;;1880444;74;21262;-68
2021/04/01 03:42:45;;;;;;;55.90;34.98;;;16.00;89.30;;;;;;1886954;74;21162;-69
2021/04/01 03:45:15;;;;;;;49.93;34.65;;;16.00;90.10;;;;;;1877057;74;21229;-69
2021/04/01 03:47:44;;;;;;;51.48;34.80;;;16.00;90.10;;;;;;1880890;74;21262;-69
2021/04/01 03:50:13;;;;;;;47.05;32.88;;;16.00;89.90;;;;;;1871536;75;21191;-69
2021/04/01 03:52:42;;;;;;;53.13;34.83;;;16.00;90.60;;;;;;1880947;74;21097;-69
2021/04/01 03:55:24;;;;;;;53.35;36.93;;;16.00;90.60;;;;;;1880766;74;21097;-69
2021/04/01 03:57:42;;;;;;;65.55;40.88;;;16.10;89.30;;;;;;1880199;74;21580;-69
2021/04/01 04:00:13;;;;;;;63.52;42.23;;;16.10;85.10;;;;;;1876267;74;21164;-69
2021/04/01 04:02:51;;;;;;;67.37;43.80;;;16.30;84.60;;;;;;1882311;74;21280;-69
2021/04/01 04:08:19;;;;;;;65.08;42.88;;;16.50;82.00;;;;;;1878233;74;21660;-69
2021/04/01 04:10:49;;;;;;;63.80;41.90;;;16.50;81.60;;;;;;1870816;74;21086;-68
2021/04/01 04:15:41;;;;;;;68.52;43.48;;;16.60;80.60;;;;;;1880799;74;21678;-70
2021/04/01 04:18:08;;;;;;;71.77;45.23;;;16.60;78.70;;;;;;1877970;74;21210;-71
2021/04/01 04:20:36;;;;;;;70.30;44.98;;;16.70;78.90;;;;;;1878248;75;21797;-70
2021/04/01 04:23:04;;;;;;;74.62;46.75;;;16.70;76.80;;;;;;1875519;74;21180;-70
2021/04/01 04:25:33;;;;;;;76.53;46.37;;;16.70;76.00;;;;;;1878942;74;21626;-70
2021/04/01 04:28:12;;;;;;;74.32;46.53;;;16.80;74.10;;;;;;1878576;74;21204;-70
2021/04/01 04:30:30;;;;;;;70.08;45.38;;;16.80;73.20;;;;;;1882636;74;21097;-70
2021/04/01 04:32:58;;;;;;;81.87;48.30;;;16.80;73.40;;;;;;1885116;74;21579;-71
2021/04/01 04:35:25;;;;;;;75.25;47.30;;;16.80;72.60;;;;;;1885692;74;22196;-71
2021/04/01 04:37:53;;;;;;;75.60;47.08;;;16.70;73.70;;;;;;1879524;74;21598;-70
2021/04/01 04:40:20;;;;;;;71.72;45.95;;;16.70;72.70;;;;;;1880661;74;21163;-71
2021/04/01 04:42:48;;;;;;;73.52;47.95;;;16.70;74.30;;;;;;1883680;74;21104;-70
2021/04/01 04:45:16;;;;;;;73.72;45.17;;;16.70;74.50;;;;;;1885852;74;21386;-70
2021/04/01 04:47:43;;;;;;;76.67;47.03;;;16.60;76.10;;;;;;1879840;74;21129;-70
2021/04/01 04:50:11;;;;;;;75.12;48.10;;;16.60;74.00;;;;;;1878714;75;21530;-70
2021/04/01 04:52:39;;;;;;;72.10;45.45;;;16.60;74.50;;;;;;1882297;74;21129;-70
2021/04/01 04:55:09;;;;;;;77.55;48.35;;;16.60;75.30;;;;;;1876525;74;21696;-69
2021/04/01 04:58:25;;;;;;;72.32;46.60;;;16.50;73.40;;;;;;1880595;74;21695;-69
2021/04/01 05:05:38;;;;;;;77.90;48.30;;;16.40;73.40;;;;;;1884302;74;21149;-68
2021/04/01 05:08:06;;;;;;;73.95;48.02;;;16.30;73.70;;;;;;1881962;74;21141;-69
2021/04/01 05:10:33;;;;;;;78.00;50.15;;;16.40;73.10;;;;;;1881450;74;21692;-68
2021/04/01 05:13:11;;;;;;;77.78;48.90;;;16.40;72.40;;;;;;1882252;74;21152;-69
2021/04/01 05:15:52;;;;;;;81.85;52.30;;;16.40;73.90;;;;;;1882018;74;21066;-67
2021/04/01 05:18:33;;;;;;;87.00;55.23;;;16.40;72.60;;;;;;1881030;74;21148;-67
2021/04/01 05:20:43;;;;;;;85.60;54.67;;;16.40;70.30;;;;;;1861562;75;21104;-68
2021/04/01 05:23:57;;;;;;;84.90;53.25;;;16.40;71.80;;;;;;1877769;75;21702;-71
2021/04/01 05:25:40;;;;;;;85.28;55.75;;;16.40;70.00;;;;;;1860199;74;21117;-67
2021/04/01 05:29:10;;;;;;;89.25;57.00;;;16.50;70.20;;;;;;1879326;74;21051;-70
2021/04/01 05:30:46;;;;;;;91.02;54.93;;;16.40;70.20;;;;;;1863872;74;21562;-69
2021/04/01 05:33:15;;;;;;;85.03;54.00;;;16.40;69.90;;;;;;1888796;74;21053;-69
2021/04/01 05:35:43;;;;;;;96.82;58.00;;;16.40;70.20;;;;;;1886116;74;21176;-68
2021/04/01 05:38:10;;;;;;;90.03;58.98;;;16.40;70.40;;;;;;1879409;75;21243;-69
2021/04/01 05:40:38;;;;;;;86.17;57.67;;;16.30;70.80;;;;;;1884904;74;21084;-66
2021/04/01 05:43:07;;;;;;;84.25;57.70;;;16.30;72.10;;;;;;1885150;74;21030;-69
2021/04/01 05:45:44;;;;;;;90.57;58.90;;;16.30;71.00;;;;;;1872593;75;21124;-71
2021/04/01 05:48:13;;;;;;;91.97;60.38;;;16.30;71.30;;;;;;1874798;74;21192;-70
2021/04/01 06:04:31;;;;;;;85.35;57.90;;;16.00;72.70;;;;;;1875083;75;21148;-68
2021/04/01 06:07:01;;;;;;;89.95;60.85;;;16.10;73.70;;;;;;1872271;75;21633;-68
2021/04/01 06:09:30;;;;;;;;;;;16.00;73.70;;;;;;1875620;75;21136;-68
2021/04/01 06:11:59;;;;;;;94.40;61.10;;;16.00;73.90;;;;;;1882485;74;20167;-68
2021/04/01 06:14:38;;;;;;;92.15;60.90;;;16.00;74.50;;;;;;1871638;75;21112;-68
2021/04/01 06:17:09;;;;;;;92.22;60.73;;;16.00;73.70;;;;;;1879614;74;21492;-67
2021/04/01 06:19:42;;;;;;;91.97;61.37;;;16.00;74.20;;;;;;1876057;74;21492;-68
2021/04/01 06:22:10;;;;;;;94.92;61.95;;;16.00;74.40;;;;;;1878209;74;21524;-68
2021/04/01 06:24:38;;;;;;;96.75;64.40;;;16.10;74.90;;;;;;1878131;75;21092;-69
2021/04/01 06:27:19;;;;;;;94.30;61.95;;;16.00;75.30;;;;;;1884579;74;21599;-67
2021/04/01 06:32:49;;;;;;;96.37;61.92;;;16.00;75.50;;;;;;1884003;74;21175;-68
2021/04/01 06:38:19;;;;;;;93.75;64.05;;;16.10;75.30;;;;;;1882223;74;21225;-68
2021/04/01 06:40:45;;;;;;;105.37;68.22;;;16.10;75.80;;;;;;1887578;74;21116;-68
2021/04/01 06:43:22;;;;;;;103.58;67.87;;;16.00;75.70;;;;;;1881575;74;21045;-68
2021/04/01 06:45:58;;;;;;;103.85;66.97;;;16.00;76.50;;;;;;1881514;74;21128;-67
2021/04/01 06:48:28;;;;;;;105.75;66.87;;;15.90;76.60;;;;;;1877791;74;21485;-68
2021/04/01 06:51:01;;;;;;;107.63;70.47;;;16.00;77.50;;;;;;1878817;74;21042;-70
2021/04/01 06:56:36;;;;;;;106.50;71.75;;;16.00;78.80;;;;;;1871155;74;21021;-70
2021/04/01 06:59:34;;;;;;;111.37;75.95;;;16.00;79.60;;;;;;1877880;74;21082;-68
2021/04/01 07:01:43;;;;;;;113.83;77.30;;;15.90;80.70;;;;;;1872145;74;21171;-69
2021/04/01 07:04:09;;;;;;;116.90;79.27;;;15.90;82.00;;;;;;1884253;74;21113;-69
2021/04/01 07:06:43;;;;;;;122.02;80.87;;;15.80;83.30;;;;;;1886170;74;21074;-69
2021/04/01 07:09:52;;;;;;;118.30;79.53;;;15.70;84.80;;;;;;1889847;74;21145;-69
2021/04/01 07:12:15;;;;;;;119.55;80.87;;;15.70;85.50;;;;;;1889629;74;21240;-68
2021/04/01 07:14:43;;;;;;;122.45;82.25;;;15.70;86.60;;;;;;1892502;74;21118;-68
2021/04/01 07:17:26;;;;;;;127.72;85.05;;;15.60;87.60;;;;;;1888038;74;21148;-68
2021/04/01 07:45:46;;;;;;;111.25;71.37;;;15.50;90.40;;;;;;1887296;74;21437;-69
2021/04/01 07:47:40;;;;;;;107.95;66.20;;;15.60;90.90;;;;;;1874438;74;21459;-68
2021/04/01 07:50:13;;;;;;;95.97;63.38;;;15.50;91.30;;;;;;1886680;74;21122;-68
2021/04/01 07:52:41;;;;;;;89.65;58.87;;;15.60;91.70;;;;;;1881089;75;21240;-67
2021/04/01 07:58:21;;;;;;;80.62;49.60;;;15.80;91.60;;;;;;1882936;74;22163;-68
2021/04/01 08:00:53;;;;;;;70.28;43.00;;;15.90;91.60;;;;;;1880129;74;21117;-69
2021/04/01 08:04:07;;;;;;;64.90;38.28;;;15.90;91.60;;;;;;1882832;74;21484;-68
2021/04/01 08:05:57;;;;;;;48.75;29.98;;;15.90;91.50;;;;;;1860673;74;21165;-68
2021/04/01 08:08:25;;;;;;;41.42;23.77;;;15.90;91.30;;;;;;1889474;74;22152;-68
2021/04/01 08:10:56;;;;;;;34.30;18.80;;;15.90;91.20;;;;;;1888989;74;21254;-68
2021/04/01 08:13:27;;;;;;;35.68;14.47;;;15.90;90.70;;;;;;1887406;74;21327;-69
2021/04/01 08:15:58;;;;;;;30.68;14.18;;;15.90;90.80;;;;;;1891657;74;22634;-69
2021/04/01 08:18:29;;;;;;;26.27;11.15;;;15.90;90.70;;;;;;1880482;74;21688;-69
2021/04/01 08:21:01;;;;;;;25.25;10.58;;;16.00;91.00;;;;;;1883843;74;21194;-68
2021/04/01 08:26:15;;;;;;;21.07;9.33;;;16.00;90.70;;;;;;1883817;75;21103;-68
2021/04/01 08:28:46;;;;;;;21.17;8.60;;;16.00;90.50;;;;;;1888721;74;21083;-68
2021/04/01 08:34:40;;;;;;;26.05;7.80;;;16.10;89.70;;;;;;1893770;74;21089;-68
2021/04/01 08:36:25;;;;;;;26.57;8.63;;;16.10;90.00;;;;;;1860673;74;21101;-68
2021/04/01 08:38:54;;;;;;;29.00;9.05;;;16.10;90.00;;;;;;1883127;74;21136;-69
2021/04/01 08:41:37;;;;;;;24.90;9.70;;;16.10;89.30;;;;;;1885918;74;21582;-68
2021/04/01 08:44:11;;;;;;;29.42;11.30;;;16.10;88.70;;;;;;1891269;74;21173;-69
2021/04/01 08:46:58;;;;;;;26.70;11.22;;;16.10;89.20;;;;;;1884517;75;21065;-69
2021/04/01 08:49:53;;;;;;;24.72;9.45;;;16.10;90.10;;;;;;1882681;74;21239;-67
2021/04/01 08:52:32;;;;;;;34.38;11.90;;;16.00;89.90;;;;;;1887913;74;21042;-69
2021/04/01 08:55:09;;;;;;;25.15;10.70;;;16.00;90.30;;;;;;1872540;74;21116;-68
2021/04/01 08:58:08;;;;;;;28.90;9.60;;;16.00;90.60;;;;;;1883936;74;21132;-68
2021/04/01 09:00:41;;;;;;;29.12;8.78;;;16.00;90.50;;;;;;1822078;74;21634;-67
2021/04/01 09:03:11;;;;;;;22.80;9.20;;;15.90;90.00;;;;;;1880523;74;21054;-67
2021/04/01 09:05:40;;;;;;;25.27;9.58;;;15.90;90.10;;;;;;1890123;74;21437;-68
2021/04/01 09:08:09;;;;;;;24.67;9.30;;;15.90;89.80;;;;;;1884540;74;21821;-68
2021/04/01 09:10:39;;;;;;;22.48;8.88;;;16.00;90.10;;;;;;1883549;74;21105;-68
2021/04/01 09:16:01;;;;;;;16.45;6.28;;;16.00;90.80;;;;;;1883714;74;21136;-68
2021/04/01 09:18:26;;;;;;;18.15;6.17;;;16.10;90.90;;;;;;1880084;74;21189;-67
2021/04/01 09:20:59;;;;;;;17.95;5.37;;;16.10;91.10;;;;;;1878806;74;21202;-68
2021/04/01 09:23:39;;;;;;;20.27;5.70;;;16.10;90.80;;;;;;1890933;74;21623;-67
2021/04/01 09:26:08;;;;;;;15.13;4.92;;;16.10;91.20;;;;;;1883766;74;21707;-68
2021/04/01 09:28:39;;;;;;;19.32;5.60;;;16.10;90.90;;;;;;1882176;74;21210;-68
2021/04/01 09:31:08;;;;;;;12.28;4.33;;;16.10;91.00;;;;;;1887728;74;21595;-68
2021/04/01 09:33:37;;;;;;;16.10;5.42;;;16.10;90.90;;;;;;1887489;74;21234;-69
2021/04/01 09:36:22;;;;;;;12.20;4.12;;;16.10;91.20;;;;;;1885210;74;21398;-68
2021/04/01 09:38:52;;;;;;;12.53;4.45;;;16.20;90.90;;;;;;1882580;74;21089;-68
2021/04/01 09:41:31;;;;;;;10.70;4.00;;;16.20;90.90;;;;;;1888628;74;21116;-68
2021/04/01 09:44:06;;;;;;;10.78;3.08;;;16.30;90.90;;;;;;1893741;74;21179;-67
2021/04/01 09:46:35;;;;;;;10.53;3.00;;;16.40;90.00;;;;;;1878600;74;21183;-68
2021/04/01 09:49:09;;;;;;;9.45;2.60;;;16.40;90.10;;;;;;1881160;74;21140;-68
2021/04/01 09:51:36;;;;;;;12.45;2.90;;;16.50;90.30;;;;;;1885489;74;21100;-68
2021/04/01 09:54:04;;;;;;;10.10;2.90;;;16.60;90.00;;;;;;1883322;74;21093;-68
2021/04/01 09:56:33;;;;;;;11.73;3.45;;;16.60;89.60;;;;;;1886067;74;21199;-68
2021/04/01 09:59:01;;;;;;;13.18;4.33;;;16.70;89.10;;;;;;1884998;74;21274;-68
2021/04/01 10:01:35;;;;;;;10.43;3.80;;;16.60;88.90;;;;;;1889599;74;21129;-68
2021/04/01 10:04:24;;;;;;;8.78;3.22;;;16.70;87.80;;;;;;1887698;74;21157;-68
2021/04/01 10:06:52;;;;;;;11.33;2.95;;;16.80;87.90;;;;;;1883789;74;21143;-68
2021/04/01 10:09:26;;;;;;;10.55;2.35;;;16.80;88.40;;;;;;1878353;74;21171;-68
2021/04/01 10:12:05;;;;;;;7.37;2.75;;;16.80;88.30;;;;;;1890168;74;21191;-68
2021/04/01 10:14:34;;;;;;;8.93;2.52;;;16.90;86.80;;;;;;1882810;74;21223;-68
2021/04/01 10:17:06;;;;;;;9.93;2.65;;;16.80;87.70;;;;;;1880935;74;21085;-67
2021/04/01 10:19:36;;;;;;;10.30;2.45;;;16.90;88.20;;;;;;1880363;74;21119;-69
2021/04/01 10:22:04;;;;;;;13.00;2.75;;;17.00;87.10;;;;;;1878621;74;21034;-66
2021/04/01 10:24:35;;;;;;;10.25;2.37;;;17.00;87.40;;;;;;1879072;74;21092;-67
2021/04/01 10:27:20;;;;;;;10.85;2.40;;;17.20;86.70;;;;;;1880111;74;21193;-69
2021/04/01 10:32:19;;;;;;;8.28;2.12;;;17.30;86.20;;;;;;1882595;74;21136;-67
2021/04/01 10:34:49;;;;;;;7.62;2.00;;;17.40;85.70;;;;;;1868758;75;21203;-69
2021/04/01 10:37:18;;;;;;;7.03;1.87;;;17.30;84.80;;;;;;1879681;74;21180;-69
2021/04/01 10:39:46;;;;;;;10.75;2.22;;;17.20;86.20;;;;;;1879956;74;21129;-69
2021/04/01 10:42:15;;;;;;;7.92;2.40;;;17.20;85.20;;;;;;1889845;74;21153;-70
2021/04/01 10:44:43;;;;;;;11.43;1.50;;;17.20;85.50;;;;;;1886047;74;21118;-69
2021/04/01 10:47:14;;;;;;;6.45;1.52;;;17.10;83.60;;;;;;1883896;74;21478;-69
2021/04/01 10:49:43;;;;;;;9.45;1.77;;;17.10;84.60;;;;;;1888439;74;21594;-69
2021/04/01 10:52:13;;;;;;;8.75;2.02;;;17.10;84.10;;;;;;1891012;74;21108;-69
2021/04/01 10:54:47;;;;;;;4.08;1.30;;;17.00;84.50;;;;;;1882966;74;21570;-68
2021/04/01 10:57:26;;;;;;;11.28;1.75;;;17.10;84.00;;;;;;1882719;74;21117;-68
2021/04/01 10:59:54;;;;;;;7.12;2.00;;;17.20;85.50;;;;;;1889235;74;21121;-69
2021/04/01 11:02:24;;;;;;;7.12;2.00;;;17.20;84.50;;;;;;1888116;74;21078;-69
2021/04/01 11:05:00;;;;;;;9.15;2.50;;;17.20;83.10;;;;;;1884690;74;21092;-69
2021/04/01 11:07:33;;;;;;;6.85;1.77;;;17.10;82.50;;;;;;1888081;74;21436;-69
2021/04/01 11:09:58;;;;;;;6.50;1.70;;;16.90;82.00;;;;;;1884025;74;21231;-69
2021/04/01 11:12:27;;;;;;;6.00;1.60;;;17.00;82.00;;;;;;1889081;74;21606;-69
2021/04/01 11:15:03;;;;;;;12.25;2.20;;;17.10;82.20;;;;;;1883700;74;22244;-69
2021/04/01 11:17:33;;;;;;;9.98;2.33;;;17.10;80.90;;;;;;1892965;74;21173;-69
2021/04/01 11:20:04;;;;;;;7.00;1.65;;;17.10;81.30;;;;;;1877785;74;21229;-69
2021/04/01 11:22:32;;;;;;;9.18;2.20;;;17.10;80.90;;;;;;1884214;74;21050;-69
2021/04/01 11:25:10;;;;;;;7.47;1.77;;;17.10;81.10;;;;;;1891200;74;21500;-69
2021/04/01 11:27:41;;;;;;;10.38;1.80;;;17.00;80.30;;;;;;1879146;74;21230;-69
2021/04/01 11:30:09;;;;;;;7.83;2.05;;;17.00;80.30;;;;;;1883504;74;21175;-69
2021/04/01 11:32:37;;;;;;;6.85;1.42;;;16.90;80.80;;;;;;1884651;74;21129;-70
2021/04/01 11:35:06;;;;;;;8.73;1.77;;;16.80;82.30;;;;;;1887091;74;21269;-70
2021/04/01 11:37:36;;;;;;;8.98;1.62;;;16.70;81.70;;;;;;1888784;74;21086;-70
2021/04/01 11:40:08;;;;;;;6.05;1.60;;;16.60;81.80;;;;;;1889875;74;21250;-69
2021/04/01 11:42:36;;;;;;;9.73;2.12;;;16.50;81.80;;;;;;1885738;74;21084;-69
2021/04/01 11:45:10;;;;;;;10.95;2.02;;;16.40;80.50;;;;;;1894026;74;21094;-69
2021/04/01 11:47:39;;;;;;;5.83;1.42;;;16.30;80.30;;;;;;1887447;74;21249;-68
2021/04/01 11:50:08;;;;;;;5.15;1.22;;;16.30;79.90;;;;;;1879043;74;21212;-67
2021/04/01 11:52:36;;;;;;;4.75;1.30;;;16.30;79.80;;;;;;1889322;74;21103;-67
2021/04/01 11:55:11;;;;;;;6.55;1.55;;;16.40;79.60;;;;;;1884432;74;21041;-68
2021/04/01 11:57:46;;;;;;;8.50;1.40;;;16.40;79.30;;;;;;1883161;74;21067;-68
2021/04/01 12:00:24;;;;;;;6.45;1.87;;;16.30;79.00;;;;;;1888735;74;21186;-71
2021/04/01 12:02:59;;;;;;;7.35;1.90;;;16.30;79.40;;;;;;1888882;74;21159;-69
2021/04/01 12:05:25;;;;;;;7.87;1.60;;;16.20;79.00;;;;;;1891018;74;21494;-70
2021/04/01 12:07:54;;;;;;;6.72;1.40;;;16.20;79.40;;;;;;1878376;74;21132;-70
2021/04/01 12:10:22;;;;;;;3.87;1.27;;;16.20;79.70;;;;;;1884449;74;22160;-71
2021/04/01 12:12:54;;;;;;;9.78;1.50;;;16.50;79.70;;;;;;1887141;74;21129;-71
2021/04/01 12:15:31;;;;;;;;;;;16.80;78.00;;;;;;1886591;74;21065;-70
2021/04/01 12:18:00;;;;;;;8.18;1.67;;;16.90;77.30;;;;;;1881781;74;20163;-75
2021/04/01 12:20:29;;;;;;;10.78;1.67;;;17.10;76.80;;;;;;1890408;74;21143;-70
2021/04/01 12:22:56;;;;;;;9.90;1.40;;;17.00;76.80;;;;;;1872344;74;21014;-70
2021/04/01 12:25:26;;;;;;;8.53;1.65;;;17.00;77.20;;;;;;1881407;74;21065;-70
2021/04/01 12:27:57;;;;;;;5.75;1.37;;;17.10;77.30;;;;;;1879171;74;21646;-71
2021/04/01 12:30:31;;;;;;;7.87;1.43;;;17.10;76.30;;;;;;1882957;74;21082;-71
2021/04/01 12:33:20;;;;;;;6.00;1.47;;;17.40;77.80;;;;;;1874565;74;21144;-70
2021/04/01 12:36:02;;;;;;;5.85;1.40;;;17.90;76.90;;;;;;1890736;74;21676;-70
2021/04/01 12:38:38;;;;;;;5.83;1.55;;;18.00;74.30;;;;;;1886811;74;21129;-70
2021/04/01 12:41:09;;;;;;;7.17;1.30;;;18.20;74.40;;;;;;1893104;74;21144;-70
2021/04/01 12:43:39;;;;;;;9.30;1.32;;;18.60;75.70;;;;;;1887001;74;21563;-70
2021/04/01 12:46:07;;;;;;;6.22;1.40;;;18.90;72.00;;;;;;1883674;75;21119;-69
2021/04/01 12:48:51;;;;;;;6.97;1.60;;;18.80;72.00;;;;;;1872550;74;21172;-70
2021/04/01 12:51:25;;;;;;;3.10;1.10;;;18.60;72.20;;;;;;1879449;75;21668;-69
2021/04/01 12:54:12;;;;;;;4.72;1.10;;;18.80;73.50;;;;;;1876763;75;21137;-69
2021/04/01 12:56:34;;;;;;;5.30;1.25;;;19.10;73.00;;;;;;1863980;75;21217;-71
2021/04/01 12:59:43;;;;;;;7.53;1.47;;;19.20;71.00;;;;;;1877372;74;21215;-68
2021/04/01 13:01:47;;;;;;;5.78;1.22;;;19.40;71.00;;;;;;1867987;74;21538;-70
2021/04/01 13:04:12;;;;;;;5.58;1.40;;;19.60;71.20;;;;;;1888998;74;21153;-69
2021/04/01 13:11:45;;;;;;;5.50;1.27;;;20.10;69.30;;;;;;1878140;74;20171;-69
2021/04/01 13:14:13;;;;;;;6.92;1.25;;;20.20;69.40;;;;;;1884991;74;21503;-69
2021/04/01 13:16:41;;;;;;;6.47;1.22;;;20.30;68.80;;;;;;1882410;74;21129;-69
2021/04/01 13:19:09;;;;;;;6.20;1.10;;;20.10;68.80;;;;;;1889290;74;21081;-70
2021/04/01 13:24:28;;;;;;;8.75;1.30;;;19.50;69.30;;;;;;1887798;74;21135;-69
2021/04/01 13:26:51;;;;;;;5.37;1.30;;;19.20;70.10;;;;;;1888805;74;21151;-68
2021/04/01 13:29:24;;;;;;;5.25;1.40;;;19.30;71.60;;;;;;1884309;74;21175;-68
2021/04/01 13:31:57;;;;;;;5.58;1.40;;;19.70;71.60;;;;;;1886808;74;21706;-69
2021/04/01 13:34:28;;;;;;;3.60;1.15;;;19.90;70.20;;;;;;1884533;74;21120;-69
2021/04/01 13:37:05;;;;;;;4.55;1.40;;;19.80;70.20;;;;;;1893625;74;21018;-68
2021/04/01 13:39:32;;;;;;;5.30;1.70;;;19.50;71.40;;;;;;1887764;74;21089;-68
2021/04/01 13:43:01;;;;;;;3.72;1.50;;;19.20;71.50;;;;;;1884204;74;21037;-68
2021/04/01 13:44:50;;;;;;;6.30;1.67;;;19.00;72.10;;;;;;1864953;74;21118;-68
2021/04/01 13:47:12;;;;;;;7.92;1.95;;;18.80;74.20;;;;;;1883413;74;21103;-68
2021/04/01 13:49:42;;;;;;;4.85;1.40;;;18.70;73.90;;;;;;1885998;74;21132;-69
2021/04/01 13:52:48;;;;;;;7.78;1.47;;;18.60;73.50;;;;;;1887699;74;21715;-69
2021/04/01 14:11:14;;;;;;;6.15;1.70;;;17.40;77.50;;;;;;1875851;74;21236;-69
2021/04/01 14:13:42;;;;;;;5.97;1.82;;;17.20;78.60;;;;;;1877444;74;21174;-69
2021/04/01 14:16:10;;;;;;;7.90;2.10;;;17.00;79.80;;;;;;1887616;74;21112;-69
2021/04/01 14:18:38;;;;;;;6.05;2.27;;;16.80;79.70;;;;;;1886252;74;21100;-70
2021/04/01 14:21:07;;;;;;;7.95;2.25;;;16.70;80.50;;;;;;1882346;74;22599;-70
2021/04/01 14:23:36;;;;;;;5.50;2.00;;;16.70;81.00;;;;;;1890653;74;21093;-71
2021/04/01 14:26:13;;;;;;;11.00;3.00;;;16.60;81.30;;;;;;1889754;74;21127;-70
2021/04/01 14:28:35;;;;;;;10.95;2.80;;;16.60;81.80;;;;;;1875967;74;21635;-70